Flight Track Log - Related Links

Times and Time Zones

All times are in EDT time to prevent confusion due to time zone crossing. See the UCA597 flight status page for this flight to view local times or setup timezone preferences in your user account.

Time Position Orientation Groundspeed Altitude Reporting Facility
EDT Latitude Longitude Course Direction KTS MPH feet Rate Location/Type
Sat 05:45:07 PM 38.9833 -77.4500 19° North 134 154 2,100  Level Potomac TRACON
Sat 05:46:07 PM 39.0167 -77.4667 339° North 150 173 3,600 1,344 Climbing Potomac TRACON
Sat 05:48:19 PM 39.1064 -77.5175 336° Northwest 154 177 6,400 1,232 Climbing Washington Center
Sat 05:49:17 PM 39.1586 -77.5161 North 162 186 7,500 1,169 Climbing Washington Center
Sat 05:50:00 PM 39.2693 -77.3204 19° North  Level Estimated
Sat 05:50:17 PM 39.2128 -77.5150 North 172 198 8,700  Level Washington Center
Sat 05:51:19 PM 39.2711 -77.5192 357° North 195 224 9,700 992 Climbing Washington Center
Sat 05:52:18 PM 39.3317 -77.5128 North 206 237 10,700 958 Climbing Washington Center
Sat 05:53:18 PM 39.3944 -77.5008 North 216 249 11,600 906 Climbing Washington Center
Sat 05:54:57 PM 39.4886 -77.4833 North 238 274 13,100 906 Climbing New York Center
Sat 05:55:57 PM 39.5478 -77.4728 North 220 253 14,000 1,050 Climbing New York Center
Sat 05:56:57 PM 39.6089 -77.4597 North 201 231 15,200 1,000 Climbing New York Center
Sat 05:57:57 PM 39.6614 -77.4539 North 208 239 16,000 900 Climbing New York Center
Sat 05:58:57 PM 39.7303 -77.4522 North 221 254 17,000 500 Climbing New York Center
Sat 05:59:57 PM 39.7972 -77.4506 North 231 266 17,000  Level New York Center
Sat 06:00:57 PM 39.8703 -77.4494 North 253 291 17,000  Level New York Center
Sat 06:01:57 PM 39.9411 -77.4481 North 259 298 17,000  Level New York Center
Sat 06:02:57 PM 40.0142 -77.4469 North 259 298 17,000  Level New York Center
Sat 06:03:57 PM 40.0850 -77.4131 20° North 259 298 17,000  Level New York Center
Sat 06:04:57 PM 40.1519 -77.3733 24° Northeast 273 314 17,000  Level New York Center
Sat 06:05:57 PM 40.2231 -77.3311 24° Northeast 273 314 17,000  Level New York Center
Sat 06:06:57 PM 40.2878 -77.2881 27° Northeast 263 303 17,000  Level New York Center
Sat 06:07:57 PM 40.3567 -77.2511 22° Northeast 263 303 17,000  Level New York Center
Sat 06:08:57 PM 40.4256 -77.2111 24° Northeast 263 303 17,000  Level New York Center
Sat 06:09:57 PM 40.4922 -77.1708 25° Northeast 263 303 17,000  Level New York Center
Sat 06:10:57 PM 40.5614 -77.1281 25° Northeast 263 303 17,000  Level New York Center
Sat 06:11:57 PM 40.6281 -77.0878 25° Northeast 263 303 17,000  Level New York Center
Sat 06:12:57 PM 40.6883 -77.0522 24° Northeast 263 303 17,000  Level New York Center
Sat 06:13:57 PM 40.7553 -77.0119 24° Northeast 263 303 17,000  Level New York Center
Sat 06:14:57 PM 40.8219 -76.9714 25° Northeast 263 303 17,000 -50 Level New York Center
Sat 06:15:57 PM 40.8950 -76.9258 25° Northeast 263 303 16,900 -400 Descending New York Center
Sat 06:16:57 PM 40.9556 -76.8872 26° Northeast 263 303 16,200 -750 Descending New York Center
Sat 06:17:57 PM 41.0244 -76.8439 25° Northeast 263 303 15,400 -800 Descending New York Center
Sat 06:18:57 PM 41.0953 -76.8036 23° Northeast 263 303 14,600 -800 Descending New York Center
Sat 06:19:57 PM 41.1639 -76.7628 24° Northeast 263 303 13,800 -800 Descending New York Center
Sat 06:20:57 PM 41.2331 -76.7164 27° Northeast 263 303 13,000 -850 Descending New York Center
Sat 06:21:57 PM 41.3103 -76.6681 25° Northeast 263 303 12,100 -850 Descending New York Center
Sat 06:22:57 PM 41.3706 -76.6292 26° Northeast 268 308 11,300 -550 Descending New York Center
Sat 06:23:57 PM 41.4436 -76.5856 24° Northeast 262 302 11,000 -150 Descending New York Center
Sat 06:24:57 PM 41.5039 -76.5464 26° Northeast 251 289 11,000  Level New York Center
Sat 06:25:57 PM 41.5617 -76.5128 24° Northeast 236 272 11,000 -150 Level New York Center
Sat 06:26:57 PM 41.6133 -76.4783 26° Northeast 230 265 10,700 -550 Descending New York Center
Sat 06:27:57 PM 41.6733 -76.4417 25° Northeast 230 265 9,900 -900 Descending New York Center
Sat 06:28:57 PM 41.7419 -76.4003 24° Northeast 236 272 8,900 -1,150 Descending New York Center
Sat 06:29:57 PM 41.8064 -76.3583 26° Northeast 244 281 7,600 -1,400 Descending New York Center
Sat 06:30:57 PM 41.8667 -76.3189 26° Northeast 249 287 6,100 -1,550 Descending New York Center
Sat 06:31:57 PM 41.9108 -76.2642 43° Northeast 243 280 4,500 -1,050 Descending New York Center
Sat 06:32:57 PM 41.9333 -76.1794 70° East 235 270 4,000 -250 Descending New York Center
Sat 06:33:57 PM 41.9578 -76.1006 67° East 214 246 4,000  Level New York Center
Sat 06:34:57 PM 41.9714 -76.0292 76° East 202 232 4,000  Level New York Center
Sat 06:35:57 PM 41.9831 -75.9547 78° East 197 227 4,000  Level New York Center
Sat 06:36:57 PM 41.9922 -75.8886 79° East 197 227 4,000  Level New York Center
Sat 06:37:57 PM 42.0314 -75.8442 40° Northeast 181 208 4,000 -100 Level New York Center
Sat 06:38:57 PM 42.0761 -75.8728 335° Northwest 142 163 3,800 -200 Descending New York Center
Sat 06:40:00 PM 42.0803 -75.9659 274° West  Level FlightAware Approximate
Sat 06:47:00 PM 42.2000 -75.9667 North  Level FlightAware Approximate

Login

Don't have an account? Register now (free) for customized features, flight alerts, and more!